Terminal Aerodrome Forecast
Issued by NWS Boston, MA

Home | Current Version | Previous Version | Text Only | Print | Product List | Glossary On
Versions: 1 2 3 4 5 6 7 8 9 10 11 12 13 14 15 16 17 18 19 20 21 22 23 24 25 26 27 28 29 30 31 32 33 34 35
000
FTUS41 KBOX 310904 AAA
TAFORH
TAF AMD
KORH 310904Z 3109/0106 22012KT P6SM SCT008 OVC020
     FM311300 23011KT P6SM BKN025
     FM311700 22011KT P6SM BKN035
     FM312100 22010KT 5SM -SHRA OVC035
     FM010300 23009KT 3SM -SHRA BR OVC050=

USA.gov is the U.S. government's official web portal to all federal, state and local government web resources and services.